Toms River, New Jersey
Current Conditions -  °F | °C
As of 1:55 PM on Monday 20 Oct 2014 (Local Time) from KMJX Reporting Station
Clear Clear  
Wind Chill: 63°   Ceiling: Unl
Heat Index: 63°   Visibility: 10mi
Dew Point: 34°   Wind: 8mph
Humidity: 34%   Direction: 210°SSW
Pressure: 30.04"   Gusts: NA
Location:  39.95°N, 74.19°W
Report Text: KMJX 201755Z AUTO 21007KT 10SM CLR 17/01 A3004 RMK AO1 10170 21010 57030
Loading
Personal Weather Stations






























Interactive Weather Map
Tropical Storm Tracking
New forecast layout! Learn more

10-Day Weather Forecast

Advertisements
Track Severe Weather on mobile